Aviation Digital Data Service (ADDS)

Output produced by METARs form (1225 UTC 20 July 2017)
found at http://www.aviationweather.gov/adds/metars/
 
KSAV 201153Z 00000KT 8SM MIFG FEW250 25/24 A3008 RMK AO2 SLP186 70010 T02500239 10250 20228 51004